Time;durP1;ratioP1;P1;durP2;ratioP2;P2;SDS_P1;SDS_P2;PMS_P1;PMS_P2;Temp;Humidity;BMP_temperature;BMP_pressure;BME280_temperature;BME280_humidity;BME280_pressure;Samples;Min_cycle;Max_cycle;Signal;HPM_P1;HPM_P2
2021/05/13 00:00:21;;;;;;;2.58;1.10;;;19.50;48.90;;;;;;5092810;28;20044;-66
2021/05/13 00:02:47;;;;;;;3.40;1.20;;;19.50;49.00;;;;;;5094399;28;20496;-65
2021/05/13 00:05:13;;;;;;;1.83;1.00;;;19.50;48.90;;;;;;5096872;28;20024;-67
2021/05/13 00:07:40;;;;;;;2.40;1.13;;;19.50;48.90;;;;;;5097140;28;20031;-65
2021/05/13 00:10:11;;;;;;;2.47;1.02;;;19.50;48.90;;;;;;5096919;28;20028;-66
2021/05/13 00:12:49;;;;;;;1.95;0.98;;;19.50;49.00;;;;;;5097092;28;20025;-65
2021/05/13 00:15:28;;;;;;;1.65;1.05;;;19.50;49.00;;;;;;5096854;28;20475;-66
2021/05/13 00:17:56;;;;;;;2.97;0.90;;;19.50;49.00;;;;;;5096801;28;20024;-65
2021/05/13 00:20:24;;;;;;;2.88;1.15;;;19.50;49.00;;;;;;5096744;28;20048;-65
2021/05/13 00:22:50;;;;;;;4.05;1.50;;;19.50;49.00;;;;;;5096657;28;20376;-65
2021/05/13 00:25:16;;;;;;;3.10;1.30;;;19.50;49.00;;;;;;5095162;28;20104;-66
2021/05/13 00:27:42;;;;;;;2.75;1.27;;;19.50;49.00;;;;;;5096558;28;20028;-65
2021/05/13 00:30:08;;;;;;;3.83;1.40;;;19.50;49.00;;;;;;5096414;28;20016;-66
2021/05/13 00:32:37;;;;;;;3.45;1.40;;;19.50;49.00;;;;;;5096425;28;20028;-66
2021/05/13 00:35:09;;;;;;;2.63;1.17;;;19.50;49.00;;;;;;5096417;28;20020;-65
2021/05/13 00:37:34;;;;;;;3.42;1.27;;;19.50;49.10;;;;;;5096433;28;20085;-65
2021/05/13 00:40:00;;;;;;;3.42;1.38;;;19.50;49.00;;;;;;5096482;28;20028;-66
2021/05/13 00:42:26;;;;;;;4.10;1.63;;;19.50;49.00;;;;;;5096306;28;20020;-65
2021/05/13 00:44:55;;;;;;;2.90;1.27;;;19.50;49.10;;;;;;5096112;28;20028;-66
2021/05/13 00:47:23;;;;;;;2.92;1.27;;;19.50;49.00;;;;;;5096533;28;20024;-65
2021/05/13 00:49:49;;;;;;;2.17;1.00;;;19.50;49.00;;;;;;5096404;28;20020;-65
2021/05/13 00:52:18;;;;;;;4.35;1.45;;;19.50;49.00;;;;;;5096143;28;20032;-65
2021/05/13 00:54:45;;;;;;;2.85;1.50;;;19.50;49.10;;;;;;5096127;28;20044;-65
2021/05/13 00:57:13;;;;;;;2.45;1.23;;;19.40;49.00;;;;;;5095982;28;20111;-65
2021/05/13 00:59:45;;;;;;;2.17;1.05;;;19.50;49.00;;;;;;5094632;28;20476;-64
2021/05/13 01:02:12;;;;;;;2.13;1.20;;;19.40;49.00;;;;;;5095891;28;20134;-65
2021/05/13 01:04:38;;;;;;;3.70;1.20;;;19.50;49.10;;;;;;5096007;28;20020;-65
2021/05/13 01:07:04;;;;;;;2.22;1.13;;;19.50;49.10;;;;;;5095827;28;20028;-65
2021/05/13 01:09:32;;;;;;;3.35;1.17;;;19.40;49.10;;;;;;5095801;28;20016;-65
2021/05/13 01:12:01;;;;;;;3.53;1.45;;;19.40;49.10;;;;;;5095648;28;20396;-65
2021/05/13 01:14:41;;;;;;;3.42;1.25;;;19.40;49.00;;;;;;5094287;28;20047;-65
2021/05/13 01:19:45;;;;;;;4.65;1.20;;;19.50;49.10;;;;;;5095916;28;20032;-65
2021/05/13 01:22:12;;;;;;;2.15;1.23;;;19.40;49.10;;;;;;5095553;28;20115;-65
2021/05/13 01:24:39;;;;;;;3.35;1.42;;;19.40;49.10;;;;;;5095240;28;20044;-65
2021/05/13 01:27:05;;;;;;;3.55;1.38;;;19.40;49.10;;;;;;5095407;28;20020;-65
2021/05/13 01:29:30;;;;;;;2.53;1.25;;;19.40;49.10;;;;;;5095450;28;20364;-66
2021/05/13 01:31:56;;;;;;;3.38;1.35;;;19.40;49.10;;;;;;5095371;28;20027;-65
2021/05/13 01:34:22;;;;;;;4.32;1.50;;;19.40;49.10;;;;;;5094050;28;20395;-66
2021/05/13 01:36:48;;;;;;;2.97;1.30;;;19.40;49.10;;;;;;5095178;28;20039;-65
2021/05/13 01:39:14;;;;;;;2.83;1.15;;;19.40;49.10;;;;;;5095148;28;20537;-65
2021/05/13 01:41:42;;;;;;;2.25;1.20;;;19.40;49.10;;;;;;5095184;28;20040;-65
2021/05/13 01:44:08;;;;;;;4.00;1.35;;;19.40;49.10;;;;;;5093809;28;20020;-65
2021/05/13 01:46:34;;;;;;;2.38;1.27;;;19.40;49.10;;;;;;5095010;28;20357;-66
2021/05/13 01:49:00;;;;;;;2.88;1.15;;;19.40;49.10;;;;;;5095017;28;20023;-66
2021/05/13 01:51:25;;;;;;;2.33;1.08;;;19.40;49.10;;;;;;5094974;28;20032;-66
2021/05/13 01:53:51;;;;;;;3.38;1.20;;;19.30;49.10;;;;;;5094909;28;20186;-65
2021/05/13 01:56:17;;;;;;;2.88;1.27;;;19.40;49.10;;;;;;5094843;28;20056;-66
2021/05/13 01:58:44;;;;;;;2.33;1.17;;;19.40;49.20;;;;;;5094864;28;20031;-66
2021/05/13 02:01:11;;;;;;;3.30;1.42;;;19.40;49.10;;;;;;5094649;28;20118;-66
2021/05/13 02:03:37;;;;;;;3.72;1.45;;;19.30;49.10;;;;;;5094753;28;20028;-66
2021/05/13 02:06:04;;;;;;;4.85;1.90;;;19.30;49.10;;;;;;5094742;28;20028;-66
2021/05/13 02:08:30;;;;;;;3.65;1.48;;;19.40;49.10;;;;;;5094669;28;20023;-65
2021/05/13 02:10:56;;;;;;;2.67;1.35;;;19.30;49.10;;;;;;5094719;28;20024;-66
2021/05/13 02:13:21;;;;;;;3.85;1.50;;;19.30;49.10;;;;;;5094599;28;20027;-66
2021/05/13 02:15:47;;;;;;;3.13;1.40;;;19.40;49.20;;;;;;5094566;28;20079;-66
2021/05/13 02:18:12;;;;;;;4.90;1.58;;;19.30;49.20;;;;;;5094549;28;20024;-66
2021/05/13 02:20:38;;;;;;;3.75;1.40;;;19.30;49.20;;;;;;5094303;28;20058;-67
2021/05/13 02:23:03;;;;;;;3.30;1.48;;;19.30;49.20;;;;;;5094401;28;20044;-65
2021/05/13 02:25:31;;;;;;;2.40;1.20;;;19.30;49.10;;;;;;5093741;28;20071;-66
2021/05/13 02:27:59;;;;;;;3.65;1.58;;;19.30;49.20;;;;;;5094281;28;20016;-65
2021/05/13 02:30:25;;;;;;;3.35;1.23;;;19.30;49.10;;;;;;5094192;28;20099;-66
2021/05/13 02:32:50;;;;;;;2.38;1.13;;;19.30;49.20;;;;;;5094460;28;20051;-66
2021/05/13 02:35:16;;;;;;;4.10;1.55;;;19.30;49.20;;;;;;5094134;28;20028;-65
2021/05/13 02:37:42;;;;;;;2.53;1.40;;;19.30;49.10;;;;;;5094067;28;20047;-66
2021/05/13 02:40:10;;;;;;;3.55;1.38;;;19.30;49.20;;;;;;5093957;28;20040;-65
2021/05/13 02:42:36;;;;;;;2.67;1.42;;;19.30;49.20;;;;;;5093991;28;20426;-66
2021/05/13 02:45:02;;;;;;;4.07;1.90;;;19.30;49.20;;;;;;5094164;28;20116;-66
2021/05/13 02:47:28;;;;;;;4.28;1.50;;;19.30;49.20;;;;;;5092547;28;20114;-66
2021/05/13 02:49:54;;;;;;;3.42;1.27;;;19.30;49.20;;;;;;5093979;28;20175;-65
2021/05/13 02:52:19;;;;;;;4.45;1.55;;;19.30;49.20;;;;;;5092509;28;20024;-65
2021/05/13 02:54:45;;;;;;;4.18;1.50;;;19.20;49.20;;;;;;5093757;28;20557;-65
2021/05/13 02:57:11;;;;;;;3.42;1.50;;;19.30;49.20;;;;;;5093691;28;20028;-66
2021/05/13 03:02:10;;;;;;;3.00;1.45;;;19.30;49.20;;;;;;5093634;28;20024;-65
2021/05/13 03:04:36;;;;;;;4.88;1.60;;;19.30;49.20;;;;;;5093832;28;20039;-66
2021/05/13 03:07:01;;;;;;;2.38;1.30;;;19.20;49.20;;;;;;5093757;28;20027;-65
2021/05/13 03:09:27;;;;;;;2.75;1.20;;;19.20;49.20;;;;;;5093520;28;20020;-65
2021/05/13 03:11:52;;;;;;;3.28;1.20;;;19.20;49.20;;;;;;5093490;28;20488;-65
2021/05/13 03:14:18;;;;;;;2.92;1.30;;;19.20;49.20;;;;;;5093514;28;20028;-66
2021/05/13 03:16:43;;;;;;;3.05;1.42;;;19.30;49.20;;;;;;5093367;28;20020;-66
2021/05/13 03:19:15;;;;;;;3.90;1.50;;;19.30;49.20;;;;;;5093507;28;20051;-65
2021/05/13 03:21:44;;;;;;;4.05;1.75;;;19.30;49.20;;;;;;5093683;28;20118;-67
2021/05/13 03:29:14;;;;;;;3.60;1.58;;;19.20;49.20;;;;;;5093280;28;20099;-66
2021/05/13 03:31:40;;;;;;;3.03;1.30;;;19.20;49.20;;;;;;5093134;28;20046;-66
2021/05/13 03:34:06;;;;;;;3.10;1.27;;;19.20;49.20;;;;;;5093075;28;20459;-66
2021/05/13 03:36:32;;;;;;;2.85;1.38;;;19.20;49.20;;;;;;5092755;28;20084;-66
2021/05/13 03:39:07;;;;;;;3.08;1.50;;;19.20;49.20;;;;;;5092980;28;20073;-66
2021/05/13 03:41:33;;;;;;;3.53;1.63;;;19.20;49.20;;;;;;5092939;28;20372;-65
2021/05/13 03:43:59;;;;;;;3.75;1.20;;;19.20;49.20;;;;;;5092968;28;20531;-65
2021/05/13 03:46:25;;;;;;;3.67;1.42;;;19.20;49.20;;;;;;5093042;28;20120;-65
2021/05/13 03:48:50;;;;;;;3.45;1.42;;;19.20;49.20;;;;;;5092943;28;20064;-65
2021/05/13 03:51:16;;;;;;;4.78;1.77;;;19.20;49.20;;;;;;5092935;28;20028;-66
2021/05/13 03:53:42;;;;;;;3.08;1.48;;;19.20;49.20;;;;;;5092921;28;20116;-65
2021/05/13 03:56:08;;;;;;;3.20;1.52;;;19.20;49.30;;;;;;5092854;28;20024;-65
2021/05/13 03:58:40;;;;;;;3.28;1.40;;;19.20;49.30;;;;;;5092854;28;20077;-66
2021/05/13 04:01:17;;;;;;;3.10;1.20;;;19.20;49.20;;;;;;5092837;28;20106;-66
2021/05/13 04:03:43;;;;;;;3.22;1.48;;;19.20;49.20;;;;;;5093055;28;20028;-66
2021/05/13 04:06:08;;;;;;;3.83;1.50;;;19.20;49.20;;;;;;5093024;28;20024;-66
2021/05/13 04:08:34;;;;;;;2.78;1.40;;;19.20;49.20;;;;;;5091621;28;20467;-66
2021/05/13 04:11:00;;;;;;;4.00;1.50;;;19.20;49.20;;;;;;5092676;28;20024;-65
2021/05/13 04:13:26;;;;;;;3.78;1.52;;;19.20;49.20;;;;;;5092725;28;20024;-64
2021/05/13 04:15:53;;;;;;;4.40;1.35;;;19.20;49.20;;;;;;5092766;28;20024;-65
2021/05/13 04:18:19;;;;;;;2.63;1.50;;;19.20;49.20;;;;;;5092688;28;20024;-65
2021/05/13 04:20:45;;;;;;;3.10;1.50;;;19.20;49.20;;;;;;5092892;28;20035;-65
2021/05/13 04:23:10;;;;;;;3.60;1.60;;;19.20;49.20;;;;;;5092704;28;20047;-65
2021/05/13 04:25:37;;;;;;;4.72;1.52;;;19.20;49.20;;;;;;5092472;28;20071;-65
2021/05/13 04:28:03;;;;;;;3.20;1.30;;;19.20;49.20;;;;;;5092592;28;20464;-65
2021/05/13 04:30:29;;;;;;;3.00;1.42;;;19.20;49.20;;;;;;5092534;28;20043;-68
2021/05/13 04:32:54;;;;;;;2.97;1.40;;;19.20;49.20;;;;;;5092562;28;20028;-65
2021/05/13 04:35:20;;;;;;;3.22;1.67;;;19.20;49.20;;;;;;5092574;28;20502;-65
2021/05/13 04:37:46;;;;;;;4.50;1.70;;;19.20;49.20;;;;;;5092776;28;20082;-65
2021/05/13 04:40:12;;;;;;;3.15;1.52;;;19.20;49.10;;;;;;5092599;28;20048;-66
2021/05/13 04:42:38;;;;;;;3.42;1.48;;;19.20;49.20;;;;;;5092416;28;20035;-65
2021/05/13 04:45:04;;;;;;;2.75;1.20;;;19.20;49.20;;;;;;5092436;28;20024;-66
2021/05/13 04:50:10;;;;;;;2.78;1.40;;;19.20;49.10;;;;;;5095938;28;20024;-65
2021/05/13 04:52:36;;;;;;;2.95;1.50;;;19.20;49.20;;;;;;5096117;28;20048;-64
2021/05/13 04:55:04;;;;;;;3.75;1.73;;;19.20;49.10;;;;;;5096093;28;20035;-65
2021/05/13 04:57:29;;;;;;;2.72;1.33;;;19.20;49.20;;;;;;5094833;28;20024;-65
2021/05/13 04:59:55;;;;;;;3.30;1.45;;;19.20;49.10;;;;;;5095953;28;20028;-65
2021/05/13 05:02:21;;;;;;;2.65;1.33;;;19.10;49.10;;;;;;5096256;28;20024;-64
2021/05/13 05:04:48;;;;;;;3.42;1.38;;;19.10;49.10;;;;;;5095888;28;20017;-65
2021/05/13 05:07:13;;;;;;;4.03;1.60;;;19.20;49.10;;;;;;5095893;28;20043;-65
2021/05/13 05:09:39;;;;;;;2.22;1.35;;;19.10;49.10;;;;;;5095819;28;20020;-65
2021/05/13 05:12:07;;;;;;;2.63;1.10;;;19.20;49.10;;;;;;5095844;28;20016;-64
2021/05/13 05:14:33;;;;;;;2.50;1.33;;;19.20;49.10;;;;;;5094466;28;20024;-65
2021/05/13 05:16:59;;;;;;;3.65;1.52;;;19.10;49.10;;;;;;5095689;28;20106;-66
2021/05/13 05:19:24;;;;;;;2.88;1.20;;;19.10;49.10;;;;;;5094332;28;20115;-64
2021/05/13 05:21:50;;;;;;;2.63;1.23;;;19.20;49.10;;;;;;5095381;28;20393;-65
2021/05/13 05:24:16;;;;;;;2.45;1.40;;;19.20;49.10;;;;;;5095329;28;20119;-65
2021/05/13 05:26:42;;;;;;;5.15;1.48;;;19.20;49.10;;;;;;5095499;28;20122;-64
2021/05/13 05:29:07;;;;;;;5.07;1.52;;;19.20;49.10;;;;;;5095485;28;20047;-65
2021/05/13 05:31:33;;;;;;;2.60;1.20;;;19.20;49.10;;;;;;5095432;28;20541;-65
2021/05/13 05:33:59;;;;;;;2.92;1.10;;;19.20;49.10;;;;;;5095368;28;20024;-64
2021/05/13 05:36:27;;;;;;;5.80;2.00;;;19.20;49.10;;;;;;5095234;28;20375;-65
2021/05/13 05:38:54;;;;;;;2.88;1.60;;;19.20;49.20;;;;;;5095561;28;20093;-65
2021/05/13 05:41:21;;;;;;;3.88;1.50;;;19.20;49.10;;;;;;5095151;28;20463;-65
2021/05/13 05:43:46;;;;;;;3.38;1.33;;;19.20;49.10;;;;;;5095207;28;20046;-65
2021/05/13 05:46:12;;;;;;;4.60;1.48;;;19.20;49.10;;;;;;5095122;28;20102;-66
2021/05/13 05:48:37;;;;;;;3.25;1.40;;;19.20;49.10;;;;;;5095113;28;20427;-65
2021/05/13 05:51:03;;;;;;;2.80;1.35;;;19.20;49.10;;;;;;5094945;28;20464;-65
2021/05/13 05:53:29;;;;;;;3.80;1.55;;;19.20;49.10;;;;;;5094984;28;20023;-64
2021/05/13 05:55:54;;;;;;;2.42;1.20;;;19.20;49.10;;;;;;5094968;28;20471;-65
2021/05/13 05:58:20;;;;;;;2.80;1.20;;;19.20;49.00;;;;;;5093620;28;20073;-65
2021/05/13 06:00:45;;;;;;;3.58;1.33;;;19.20;49.00;;;;;;5093877;28;20111;-66
2021/05/13 06:03:11;;;;;;;2.67;1.35;;;19.20;49.00;;;;;;5094763;28;20036;-65
2021/05/13 06:05:36;;;;;;;2.92;1.40;;;19.20;49.00;;;;;;5094736;28;20024;-65
2021/05/13 06:08:04;;;;;;;3.50;1.50;;;19.20;49.00;;;;;;5094679;28;20052;-65
2021/05/13 06:10:30;;;;;;;4.22;1.60;;;19.20;49.00;;;;;;5094894;28;20035;-65
2021/05/13 06:12:55;;;;;;;4.38;1.33;;;19.20;49.00;;;;;;5094625;28;20020;-66
2021/05/13 06:15:23;;;;;;;3.92;1.40;;;19.50;48.20;;;;;;5094573;28;20063;-65
2021/05/13 06:17:49;;;;;;;2.65;1.25;;;19.50;48.10;;;;;;5094639;28;20024;-65
2021/05/13 06:20:26;;;;;;;3.83;1.30;;;19.40;48.40;;;;;;5094261;28;20028;-65
2021/05/13 06:22:52;;;;;;;2.28;1.30;;;19.50;48.60;;;;;;5094351;28;20421;-66
2021/05/13 06:25:18;;;;;;;2.50;1.02;;;19.40;48.70;;;;;;5094196;28;20056;-66
2021/05/13 06:27:45;;;;;;;2.85;1.27;;;19.40;48.70;;;;;;5094310;28;20024;-65
2021/05/13 06:30:12;;;;;;;3.65;1.48;;;19.40;48.70;;;;;;5092954;28;20446;-65
2021/05/13 06:32:37;;;;;;;3.28;1.45;;;19.30;48.80;;;;;;5094709;28;20028;-66
2021/05/13 06:35:04;;;;;;;2.70;1.10;;;19.40;48.80;;;;;;5094144;28;20168;-65
2021/05/13 06:37:29;;;;;;;2.58;1.05;;;19.40;48.70;;;;;;5094008;28;20042;-66
2021/05/13 06:39:55;;;;;;;4.82;1.48;;;19.40;48.70;;;;;;5094247;28;20040;-65
2021/05/13 06:42:20;;;;;;;3.58;1.55;;;19.40;48.80;;;;;;5094234;28;20061;-66
2021/05/13 06:44:46;;;;;;;2.97;1.42;;;19.40;48.80;;;;;;5094109;28;20062;-66
2021/05/13 06:47:12;;;;;;;2.92;1.30;;;19.40;48.70;;;;;;5093887;28;20109;-66
2021/05/13 06:49:39;;;;;;;3.10;1.13;;;19.40;48.70;;;;;;5093905;28;20027;-65
2021/05/13 06:52:05;;;;;;;2.53;1.20;;;19.40;48.70;;;;;;5093841;28;20027;-65
2021/05/13 06:54:31;;;;;;;3.00;1.60;;;19.50;48.70;;;;;;5093909;28;20020;-66
2021/05/13 06:56:56;;;;;;;2.55;1.58;;;19.40;48.60;;;;;;5093843;28;20050;-65
2021/05/13 06:59:22;;;;;;;4.55;1.80;;;19.50;48.70;;;;;;5093570;28;20024;-66
2021/05/13 07:01:48;;;;;;;3.80;1.20;;;19.50;48.60;;;;;;5093550;28;20042;-66
2021/05/13 07:04:13;;;;;;;3.08;1.42;;;19.50;48.60;;;;;;5093585;28;20051;-65
2021/05/13 07:06:39;;;;;;;3.08;1.25;;;19.50;48.60;;;;;;5093577;28;20020;-65
2021/05/13 07:09:06;;;;;;;2.42;1.17;;;19.50;48.60;;;;;;5093470;28;20024;-65
2021/05/13 07:11:32;;;;;;;2.25;1.13;;;19.50;48.60;;;;;;5093460;28;20051;-65
2021/05/13 07:13:58;;;;;;;2.72;1.27;;;19.50;48.50;;;;;;5093381;28;20142;-65
2021/05/13 07:16:23;;;;;;;2.38;1.30;;;20.20;47.10;;;;;;5093445;28;20020;-65
2021/05/13 07:18:49;;;;;;;3.15;1.30;;;21.30;44.30;;;;;;5093517;28;20032;-65
2021/05/13 07:21:15;;;;;;;2.85;1.33;;;20.70;45.20;;;;;;5093191;28;20085;-66
2021/05/13 07:23:43;;;;;;;2.58;1.30;;;20.20;46.40;;;;;;5093100;28;20115;-65
2021/05/13 07:26:10;;;;;;;3.25;1.40;;;20.00;47.10;;;;;;5093360;28;20039;-66
2021/05/13 07:28:37;;;;;;;2.97;1.38;;;19.90;47.50;;;;;;5093195;28;20017;-66
2021/05/13 07:31:03;;;;;;;2.40;1.23;;;19.80;47.70;;;;;;5093111;28;20020;-65
2021/05/13 07:33:29;;;;;;;1.90;0.95;;;19.80;47.80;;;;;;5093014;28;20032;-65
2021/05/13 07:35:54;;;;;;;2.03;1.15;;;19.70;48.00;;;;;;5093283;28;20107;-66
2021/05/13 07:38:20;;;;;;;5.03;1.20;;;19.70;48.00;;;;;;5092978;28;20028;-65
2021/05/13 07:40:45;;;;;;;2.30;1.10;;;19.70;48.20;;;;;;5092967;28;20067;-66
2021/05/13 07:43:11;;;;;;;4.25;1.30;;;19.70;48.20;;;;;;5092999;28;20031;-67
2021/05/13 07:45:42;;;;;;;3.28;1.63;;;19.70;48.20;;;;;;5092891;28;20024;-65
2021/05/13 07:48:08;;;;;;;3.33;1.20;;;19.70;48.20;;;;;;5092971;28;20052;-65
2021/05/13 07:50:34;;;;;;;3.92;1.13;;;19.70;48.20;;;;;;5092866;28;20052;-65
2021/05/13 07:53:00;;;;;;;3.65;1.40;;;19.70;48.20;;;;;;5092828;28;20034;-66
2021/05/13 07:55:26;;;;;;;2.67;1.33;;;19.70;48.30;;;;;;5092865;28;20119;-66
2021/05/13 07:57:51;;;;;;;3.03;1.38;;;19.70;48.30;;;;;;5092866;28;20042;-65
2021/05/13 08:00:17;;;;;;;2.65;1.30;;;19.70;48.20;;;;;;5092698;28;20054;-66
2021/05/13 08:02:44;;;;;;;3.30;1.40;;;19.70;48.20;;;;;;5092716;28;20027;-66
2021/05/13 08:05:10;;;;;;;3.20;1.33;;;19.70;48.20;;;;;;5092791;28;20052;-66
2021/05/13 08:07:35;;;;;;;3.20;1.50;;;19.70;48.20;;;;;;5092765;28;20024;-65
2021/05/13 08:10:01;;;;;;;3.80;1.20;;;19.70;48.30;;;;;;5092593;28;20036;-66
2021/05/13 08:12:27;;;;;;;3.10;1.40;;;19.70;48.20;;;;;;5092560;28;20051;-66
2021/05/13 08:14:53;;;;;;;3.88;1.15;;;19.70;48.30;;;;;;5092820;28;20062;-67
2021/05/13 08:17:18;;;;;;;3.20;1.27;;;19.70;48.20;;;;;;5092525;28;20103;-66
2021/05/13 08:19:44;;;;;;;3.25;1.10;;;19.70;48.30;;;;;;5092527;28;20097;-66
2021/05/13 08:22:09;;;;;;;3.30;1.42;;;19.80;48.20;;;;;;5092458;28;20125;-66
2021/05/13 08:24:35;;;;;;;2.75;1.58;;;19.80;48.20;;;;;;5095181;28;20043;-66
2021/05/13 08:27:03;;;;;;;2.97;1.42;;;19.70;48.20;;;;;;5096728;28;20032;-66
2021/05/13 08:29:30;;;;;;;3.60;1.27;;;19.70;48.20;;;;;;5096766;28;20035;-66
2021/05/13 08:31:56;;;;;;;3.58;1.17;;;19.80;48.30;;;;;;5096439;28;20059;-66
2021/05/13 08:34:21;;;;;;;3.10;1.30;;;19.80;48.20;;;;;;5096398;28;20101;-66
2021/05/13 08:36:47;;;;;;;4.88;1.30;;;19.80;48.30;;;;;;5096444;28;20031;-65
2021/05/13 08:39:13;;;;;;;3.38;1.27;;;19.80;48.30;;;;;;5096569;28;20081;-65
2021/05/13 08:41:39;;;;;;;3.13;1.20;;;19.80;48.20;;;;;;5096123;28;20105;-66
2021/05/13 08:44:09;;;;;;;3.28;1.25;;;19.80;48.20;;;;;;5094903;28;20107;-66
2021/05/13 08:46:38;;;;;;;3.65;1.30;;;19.80;48.20;;;;;;5096330;28;20032;-66
2021/05/13 08:49:05;;;;;;;2.83;1.30;;;19.80;48.20;;;;;;5096210;28;20020;-65
2021/05/13 08:51:32;;;;;;;3.75;1.40;;;19.80;48.20;;;;;;5096080;28;20020;-65
2021/05/13 08:53:58;;;;;;;4.13;1.33;;;19.80;48.20;;;;;;5096027;28;20024;-65
2021/05/13 08:56:26;;;;;;;2.25;1.02;;;19.80;48.20;;;;;;5096004;28;20024;-65
2021/05/13 08:58:53;;;;;;;2.40;0.95;;;19.80;48.20;;;;;;5096128;28;20032;-66
2021/05/13 09:01:24;;;;;;;3.42;1.23;;;19.80;48.20;;;;;;5095806;28;20506;-66
2021/05/13 09:03:53;;;;;;;2.85;1.05;;;19.80;48.20;;;;;;5095826;28;20024;-67
2021/05/13 09:09:08;;;;;;;2.25;1.05;;;19.80;48.10;;;;;;5095853;28;20058;-65
2021/05/13 09:11:34;;;;;;;2.17;1.05;;;19.80;48.10;;;;;;5095732;28;20024;-66
2021/05/13 09:14:01;;;;;;;3.17;1.25;;;19.80;48.10;;;;;;5095856;28;20034;-66
2021/05/13 09:16:29;;;;;;;2.95;1.30;;;19.80;48.10;;;;;;5095787;28;20047;-66
2021/05/13 09:18:56;;;;;;;3.80;1.30;;;19.90;48.20;;;;;;5095450;28;20024;-66
2021/05/13 09:21:22;;;;;;;3.08;1.40;;;19.90;48.10;;;;;;5095314;28;20488;-65
2021/05/13 09:23:48;;;;;;;2.10;1.20;;;19.80;48.20;;;;;;5095230;28;20063;-66
2021/05/13 09:26:19;;;;;;;2.35;1.00;;;19.80;48.20;;;;;;5095436;28;20039;-66
2021/05/13 09:29:06;;;;;;;3.88;1.15;;;19.90;48.20;;;;;;5095472;28;20020;-66
2021/05/13 09:31:36;;;;;;;2.90;1.13;;;19.80;48.10;;;;;;5095279;28;20030;-66
2021/05/13 09:34:04;;;;;;;2.63;1.30;;;19.80;48.20;;;;;;5095534;28;20111;-66
2021/05/13 09:36:30;;;;;;;3.45;1.20;;;19.80;48.20;;;;;;5093926;28;20050;-66
2021/05/13 09:38:55;;;;;;;2.20;1.10;;;19.90;48.10;;;;;;5094014;28;20031;-65
2021/05/13 09:41:27;;;;;;;4.43;1.33;;;19.90;48.10;;;;;;5095281;28;20034;-66
2021/05/13 09:43:52;;;;;;;3.00;1.38;;;19.90;48.10;;;;;;5093796;28;20024;-66
2021/05/13 09:46:30;;;;;;;2.78;1.10;;;19.90;48.00;;;;;;5094991;28;20541;-66
2021/05/13 09:48:57;;;;;;;2.70;1.27;;;19.90;48.00;;;;;;5095074;28;20063;-67
2021/05/13 09:51:29;;;;;;;3.60;1.00;;;19.90;48.10;;;;;;5095156;28;20020;-66
2021/05/13 09:54:04;;;;;;;3.63;1.40;;;20.00;48.00;;;;;;5094833;28;20357;-66
2021/05/13 09:56:31;;;;;;;4.50;1.27;;;20.00;47.90;;;;;;5094894;28;20337;-66
2021/05/13 09:58:57;;;;;;;2.75;1.33;;;20.00;47.90;;;;;;5094748;28;20028;-66
2021/05/13 10:01:34;;;;;;;3.25;1.40;;;20.00;47.90;;;;;;5094857;28;20040;-65
2021/05/13 10:04:00;;;;;;;2.03;1.20;;;20.00;47.80;;;;;;5095547;28;20094;-66
2021/05/13 10:06:25;;;;;;;2.80;0.88;;;20.10;47.80;;;;;;5095343;28;20028;-65
2021/05/13 10:08:51;;;;;;;1.92;1.10;;;20.10;47.70;;;;;;5094994;28;20487;-67
2021/05/13 10:11:17;;;;;;;2.72;1.15;;;20.10;47.60;;;;;;5094885;28;20012;-66
2021/05/13 10:13:42;;;;;;;2.60;1.08;;;20.10;47.60;;;;;;5095104;28;20027;-66
2021/05/13 10:16:08;;;;;;;2.60;1.27;;;20.10;47.70;;;;;;5094986;28;20464;-65
2021/05/13 10:18:40;;;;;;;3.35;1.10;;;20.10;47.70;;;;;;5095291;28;20481;-65
2021/05/13 10:21:12;;;;;;;2.90;1.20;;;20.10;47.70;;;;;;5095049;28;20064;-65
2021/05/13 10:23:40;;;;;;;2.30;1.00;;;20.10;47.70;;;;;;5094801;28;20403;-65
2021/05/13 10:26:07;;;;;;;2.95;1.10;;;20.00;47.70;;;;;;5094924;28;20122;-66
2021/05/13 10:28:34;;;;;;;4.28;1.10;;;20.10;47.80;;;;;;5094781;28;20035;-65
2021/05/13 10:31:06;;;;;;;2.28;1.10;;;20.00;47.80;;;;;;5094919;28;20467;-66
2021/05/13 10:33:48;;;;;;;2.25;1.00;;;20.00;47.80;;;;;;5094795;28;20016;-66
2021/05/13 10:36:18;;;;;;;3.13;0.95;;;20.00;47.80;;;;;;5094702;28;20020;-65
2021/05/13 10:38:46;;;;;;;3.63;1.50;;;20.00;47.80;;;;;;5094592;28;20042;-66
2021/05/13 10:41:33;;;;;;;2.88;1.30;;;20.00;47.80;;;;;;5094318;28;20123;-66
2021/05/13 10:44:19;;;;;;;2.55;1.13;;;20.10;47.70;;;;;;5094925;28;20115;-66
2021/05/13 10:46:55;;;;;;;1.67;1.02;;;20.10;47.60;;;;;;5093866;28;20020;-66
2021/05/13 10:49:23;;;;;;;2.28;1.10;;;20.10;47.60;;;;;;5094467;28;20093;-66
2021/05/13 10:51:54;;;;;;;2.25;1.02;;;20.20;47.60;;;;;;5094775;28;20028;-65
2021/05/13 10:54:44;;;;;;;3.70;1.00;;;20.10;47.60;;;;;;5094564;28;20110;-67
2021/05/13 10:57:17;;;;;;;1.92;1.08;;;20.20;47.40;;;;;;5089049;28;20463;-66
2021/05/13 11:00:08;;;;;;;3.08;1.20;;;20.20;47.40;;;;;;5094592;28;20379;-66
2021/05/13 11:02:47;;;;;;;3.58;1.40;;;20.20;47.40;;;;;;5093987;28;20054;-67
2021/05/13 11:05:33;;;;;;;2.47;1.13;;;20.30;47.30;;;;;;5094045;28;20535;-66
2021/05/13 11:08:04;;;;;;;1.83;1.00;;;20.20;47.50;;;;;;5094182;28;20024;-65
2021/05/13 11:11:02;;;;;;;1.75;0.95;;;20.30;47.30;;;;;;5094094;28;20421;-66
2021/05/13 11:13:45;;;;;;;2.03;0.77;;;20.30;47.20;;;;;;5071178;28;20040;-66
2021/05/13 11:16:40;;;;;;;2.38;1.10;;;20.20;47.40;;;;;;5093863;28;20020;-65
2021/05/13 11:19:25;;;;;;;3.25;1.25;;;20.20;47.40;;;;;;5093919;28;20020;-65
2021/05/13 11:22:03;;;;;;;3.20;1.13;;;20.30;47.30;;;;;;5094057;28;20119;-66
2021/05/13 11:24:38;;;;;;;2.35;1.05;;;20.40;47.20;;;;;;5093530;28;20086;-66
2021/05/13 11:27:05;;;;;;;2.78;1.20;;;20.40;47.20;;;;;;5093916;28;20092;-65
2021/05/13 11:29:50;;;;;;;2.90;1.33;;;20.40;47.20;;;;;;5093773;28;20084;-66
2021/05/13 11:32:17;;;;;;;2.15;1.10;;;20.40;47.10;;;;;;5093615;28;20024;-66
2021/05/13 11:34:44;;;;;;;3.15;1.10;;;20.50;47.10;;;;;;5093654;28;20024;-66
2021/05/13 11:37:30;;;;;;;1.38;0.90;;;20.50;47.00;;;;;;5093333;28;20032;-66
2021/05/13 11:39:55;;;;;;;2.88;1.10;;;20.60;46.90;;;;;;5093703;28;20379;-66
2021/05/13 11:42:21;;;;;;;1.58;0.95;;;20.60;46.80;;;;;;5093408;28;20130;-67
2021/05/13 11:44:59;;;;;;;1.55;0.77;;;20.70;46.70;;;;;;5093557;28;20525;-66
2021/05/13 11:47:30;;;;;;;3.38;1.40;;;20.70;46.70;;;;;;5093324;28;20541;-66
2021/05/13 11:49:56;;;;;;;2.42;1.05;;;20.70;46.70;;;;;;5093468;28;20044;-66
2021/05/13 11:52:21;;;;;;;1.85;0.85;;;20.80;46.60;;;;;;5093331;28;20085;-66
2021/05/13 11:54:47;;;;;;;2.20;1.00;;;20.70;46.80;;;;;;5093191;28;20472;-66
2021/05/13 11:57:13;;;;;;;2.38;1.02;;;20.70;46.80;;;;;;5093645;28;20024;-67
2021/05/13 11:59:38;;;;;;;2.90;0.85;;;20.70;46.70;;;;;;5092630;28;20024;-66
2021/05/13 12:02:14;;;;;;;2.30;0.90;;;20.70;46.70;;;;;;5093391;28;20074;-66
2021/05/13 12:04:40;;;;;;;3.42;1.20;;;20.70;46.80;;;;;;5093308;28;20099;-67
2021/05/13 12:07:05;;;;;;;2.30;1.10;;;20.60;46.80;;;;;;5091848;28;20060;-66
2021/05/13 12:09:33;;;;;;;2.58;1.20;;;20.60;46.80;;;;;;5093028;28;20107;-66
2021/05/13 12:12:00;;;;;;;3.40;1.25;;;20.60;46.80;;;;;;5093232;28;20035;-66
2021/05/13 12:14:27;;;;;;;1.55;0.90;;;20.60;46.80;;;;;;5093120;28;20027;-66
2021/05/13 12:17:02;;;;;;;3.35;1.25;;;20.70;46.70;;;;;;5093007;28;20467;-67
2021/05/13 12:19:29;;;;;;;3.42;1.20;;;20.60;46.80;;;;;;5093289;28;20047;-66
2021/05/13 12:21:58;;;;;;;2.65;1.30;;;20.60;46.80;;;;;;5092952;28;20024;-66
2021/05/13 12:24:31;;;;;;;3.63;1.20;;;20.70;46.80;;;;;;5092985;28;20052;-67
2021/05/13 12:26:58;;;;;;;2.83;1.30;;;20.70;46.70;;;;;;5093444;28;20032;-66
2021/05/13 12:29:24;;;;;;;3.05;1.30;;;20.70;46.80;;;;;;5093419;28;20074;-67
2021/05/13 12:31:50;;;;;;;2.40;1.15;;;20.70;46.80;;;;;;5093440;28;20070;-67
2021/05/13 12:34:49;;;;;;;1.83;1.00;;;20.60;46.80;;;;;;5093039;28;20033;-66
2021/05/13 12:37:21;;;;;;;3.65;1.58;;;20.60;46.80;;;;;;5093244;28;20344;-66
2021/05/13 12:39:47;;;;;;;4.15;1.77;;;20.60;46.80;;;;;;5092922;28;20111;-66
2021/05/13 12:42:30;;;;;;;2.28;1.20;;;20.70;46.70;;;;;;5093064;28;20132;-66
2021/05/13 12:45:16;;;;;;;1.88;1.08;;;20.80;46.50;;;;;;5092875;28;20020;-66
2021/05/13 12:47:42;;;;;;;3.45;1.40;;;20.70;46.70;;;;;;5092724;28;20372;-66
2021/05/13 12:50:09;;;;;;;3.08;1.50;;;20.70;46.70;;;;;;5092991;28;20594;-66
2021/05/13 12:52:34;;;;;;;2.97;1.30;;;20.70;46.60;;;;;;5092882;28;20055;-66
2021/05/13 12:55:15;;;;;;;3.88;1.80;;;20.70;46.60;;;;;;5092968;28;20456;-66
2021/05/13 12:57:43;;;;;;;3.75;1.58;;;20.70;46.60;;;;;;5092584;28;20412;-66
2021/05/13 13:00:10;;;;;;;3.67;1.30;;;20.70;46.60;;;;;;5092633;28;20051;-66
2021/05/13 13:02:36;;;;;;;2.22;1.17;;;20.70;46.60;;;;;;5092484;28;20060;-66
2021/05/13 13:05:05;;;;;;;3.47;1.48;;;20.70;46.60;;;;;;5093558;28;20033;-67
2021/05/13 13:07:38;;;;;;;2.90;1.38;;;20.80;46.30;;;;;;5093505;28;20387;-65